sensor_id;sensor_type;location;lat;lon;timestamp;P1;durP1;ratioP1;P2;durP2;ratioP2
69008;SDS011;56065;52.472;13.380;2023-07-20T00:02:18;7.47;;;3.03;;
69008;SDS011;56065;52.472;13.380;2023-07-20T00:04:44;7.07;;;2.83;;
69008;SDS011;56065;52.472;13.380;2023-07-20T00:07:09;7.00;;;2.77;;
69008;SDS011;56065;52.472;13.380;2023-07-20T00:09:34;6.43;;;3.20;;
69008;SDS011;56065;52.472;13.380;2023-07-20T00:12:00;7.10;;;2.70;;
69008;SDS011;56065;52.472;13.380;2023-07-20T00:14:25;5.70;;;2.73;;
69008;SDS011;56065;52.472;13.380;2023-07-20T00:16:51;6.60;;;2.47;;
69008;SDS011;56065;52.472;13.380;2023-07-20T00:19:26;8.90;;;3.13;;
69008;SDS011;56065;52.472;13.380;2023-07-20T00:21:52;5.90;;;2.53;;
69008;SDS011;56065;52.472;13.380;2023-07-20T00:24:22;5.85;;;2.95;;
69008;SDS011;56065;52.472;13.380;2023-07-20T00:26:48;6.60;;;3.13;;
69008;SDS011;56065;52.472;13.380;2023-07-20T00:29:13;6.93;;;3.07;;
69008;SDS011;56065;52.472;13.380;2023-07-20T00:31:38;7.53;;;3.20;;
69008;SDS011;56065;52.472;13.380;2023-07-20T00:34:04;7.47;;;3.55;;
69008;SDS011;56065;52.472;13.380;2023-07-20T00:36:29;7.70;;;3.30;;
69008;SDS011;56065;52.472;13.380;2023-07-20T00:38:55;8.48;;;3.25;;
69008;SDS011;56065;52.472;13.380;2023-07-20T00:41:22;5.97;;;3.03;;
69008;SDS011;56065;52.472;13.380;2023-07-20T00:43:47;7.90;;;3.55;;
69008;SDS011;56065;52.472;13.380;2023-07-20T00:46:13;7.63;;;3.13;;
69008;SDS011;56065;52.472;13.380;2023-07-20T00:48:39;7.80;;;3.50;;
69008;SDS011;56065;52.472;13.380;2023-07-20T00:51:06;9.77;;;3.50;;
69008;SDS011;56065;52.472;13.380;2023-07-20T00:53:31;7.00;;;3.30;;
69008;SDS011;56065;52.472;13.380;2023-07-20T00:55:57;7.70;;;3.70;;
69008;SDS011;56065;52.472;13.380;2023-07-20T00:58:23;6.43;;;3.20;;
69008;SDS011;56065;52.472;13.380;2023-07-20T01:00:49;7.37;;;3.27;;
69008;SDS011;56065;52.472;13.380;2023-07-20T01:03:14;8.77;;;4.20;;
69008;SDS011;56065;52.472;13.380;2023-07-20T01:06:14;8.17;;;3.90;;
69008;SDS011;56065;52.472;13.380;2023-07-20T01:14:02;6.97;;;3.85;;
69008;SDS011;56065;52.472;13.380;2023-07-20T01:16:28;8.13;;;4.43;;
69008;SDS011;56065;52.472;13.380;2023-07-20T01:18:53;6.60;;;3.50;;
69008;SDS011;56065;52.472;13.380;2023-07-20T01:21:24;6.90;;;3.90;;
69008;SDS011;56065;52.472;13.380;2023-07-20T01:32:29;7.93;;;3.90;;
69008;SDS011;56065;52.472;13.380;2023-07-20T01:34:56;9.75;;;5.00;;
69008;SDS011;56065;52.472;13.380;2023-07-20T01:37:23;7.03;;;3.70;;
69008;SDS011;56065;52.472;13.380;2023-07-20T01:39:53;8.05;;;4.05;;
69008;SDS011;56065;52.472;13.380;2023-07-20T01:42:22;8.13;;;4.27;;
69008;SDS011;56065;52.472;13.380;2023-07-20T01:44:50;7.38;;;4.28;;
69008;SDS011;56065;52.472;13.380;2023-07-20T01:47:17;7.72;;;4.00;;
69008;SDS011;56065;52.472;13.380;2023-07-20T01:49:42;7.67;;;4.47;;
69008;SDS011;56065;52.472;13.380;2023-07-20T01:52:08;10.27;;;4.78;;
69008;SDS011;56065;52.472;13.380;2023-07-20T01:54:33;9.07;;;4.70;;
69008;SDS011;56065;52.472;13.380;2023-07-20T01:56:58;8.73;;;4.53;;
69008;SDS011;56065;52.472;13.380;2023-07-20T01:59:24;8.63;;;4.87;;
69008;SDS011;56065;52.472;13.380;2023-07-20T02:01:49;8.17;;;4.27;;
69008;SDS011;56065;52.472;13.380;2023-07-20T02:04:15;8.65;;;4.50;;
69008;SDS011;56065;52.472;13.380;2023-07-20T02:06:40;8.43;;;4.17;;
69008;SDS011;56065;52.472;13.380;2023-07-20T02:09:06;8.20;;;4.60;;
69008;SDS011;56065;52.472;13.380;2023-07-20T02:11:31;7.97;;;4.63;;
69008;SDS011;56065;52.472;13.380;2023-07-20T02:13:56;8.67;;;4.47;;
69008;SDS011;56065;52.472;13.380;2023-07-20T02:16:22;9.32;;;5.00;;
69008;SDS011;56065;52.472;13.380;2023-07-20T02:18:47;9.07;;;4.67;;
69008;SDS011;56065;52.472;13.380;2023-07-20T02:21:12;8.23;;;4.83;;
69008;SDS011;56065;52.472;13.380;2023-07-20T02:23:38;8.37;;;4.33;;
69008;SDS011;56065;52.472;13.380;2023-07-20T02:26:03;8.70;;;4.80;;
69008;SDS011;56065;52.472;13.380;2023-07-20T02:28:28;7.83;;;4.50;;
69008;SDS011;56065;52.472;13.380;2023-07-20T02:30:54;10.33;;;4.93;;
69008;SDS011;56065;52.472;13.380;2023-07-20T02:33:19;7.87;;;4.23;;
69008;SDS011;56065;52.472;13.380;2023-07-20T02:35:45;7.83;;;4.43;;
69008;SDS011;56065;52.472;13.380;2023-07-20T02:38:11;8.67;;;5.20;;
69008;SDS011;56065;52.472;13.380;2023-07-20T02:40:36;9.02;;;5.00;;
69008;SDS011;56065;52.472;13.380;2023-07-20T02:43:01;8.67;;;4.43;;
69008;SDS011;56065;52.472;13.380;2023-07-20T02:45:27;7.67;;;4.50;;
69008;SDS011;56065;52.472;13.380;2023-07-20T02:47:52;10.47;;;5.30;;
69008;SDS011;56065;52.472;13.380;2023-07-20T02:50:18;8.77;;;4.93;;
69008;SDS011;56065;52.472;13.380;2023-07-20T02:52:43;8.93;;;4.88;;
69008;SDS011;56065;52.472;13.380;2023-07-20T02:55:08;8.20;;;5.20;;
69008;SDS011;56065;52.472;13.380;2023-07-20T02:57:34;9.10;;;5.90;;
69008;SDS011;56065;52.472;13.380;2023-07-20T02:59:59;12.70;;;6.67;;
69008;SDS011;56065;52.472;13.380;2023-07-20T03:02:25;10.90;;;6.43;;
69008;SDS011;56065;52.472;13.380;2023-07-20T03:04:50;11.07;;;6.53;;
69008;SDS011;56065;52.472;13.380;2023-07-20T03:07:15;12.13;;;6.47;;
69008;SDS011;56065;52.472;13.380;2023-07-20T03:09:41;10.97;;;6.63;;
69008;SDS011;56065;52.472;13.380;2023-07-20T03:12:06;8.77;;;6.40;;
69008;SDS011;56065;52.472;13.380;2023-07-20T03:14:32;10.75;;;6.78;;
69008;SDS011;56065;52.472;13.380;2023-07-20T03:16:58;14.60;;;7.23;;
69008;SDS011;56065;52.472;13.380;2023-07-20T03:19:23;11.43;;;7.05;;
69008;SDS011;56065;52.472;13.380;2023-07-20T03:21:48;10.80;;;7.03;;
69008;SDS011;56065;52.472;13.380;2023-07-20T03:24:14;10.57;;;6.90;;
69008;SDS011;56065;52.472;13.380;2023-07-20T03:26:39;11.67;;;7.17;;
69008;SDS011;56065;52.472;13.380;2023-07-20T03:29:05;14.35;;;7.15;;
69008;SDS011;56065;52.472;13.380;2023-07-20T03:31:31;14.10;;;7.10;;
69008;SDS011;56065;52.472;13.380;2023-07-20T03:33:57;12.83;;;7.43;;
69008;SDS011;56065;52.472;13.380;2023-07-20T03:36:22;13.37;;;7.53;;
69008;SDS011;56065;52.472;13.380;2023-07-20T03:38:48;11.70;;;6.50;;
69008;SDS011;56065;52.472;13.380;2023-07-20T03:41:13;13.70;;;7.47;;
69008;SDS011;56065;52.472;13.380;2023-07-20T03:43:40;11.85;;;7.07;;
69008;SDS011;56065;52.472;13.380;2023-07-20T03:46:06;9.47;;;6.17;;
69008;SDS011;56065;52.472;13.380;2023-07-20T03:48:31;11.03;;;6.90;;
69008;SDS011;56065;52.472;13.380;2023-07-20T03:50:56;14.03;;;8.13;;
69008;SDS011;56065;52.472;13.380;2023-07-20T03:53:22;12.40;;;7.67;;
69008;SDS011;56065;52.472;13.380;2023-07-20T03:55:47;13.97;;;7.93;;
69008;SDS011;56065;52.472;13.380;2023-07-20T03:58:14;11.43;;;7.53;;
69008;SDS011;56065;52.472;13.380;2023-07-20T04:00:39;12.47;;;7.60;;
69008;SDS011;56065;52.472;13.380;2023-07-20T04:03:08;12.43;;;6.57;;
69008;SDS011;56065;52.472;13.380;2023-07-20T04:05:33;11.47;;;7.80;;
69008;SDS011;56065;52.472;13.380;2023-07-20T04:07:58;13.13;;;7.90;;
69008;SDS011;56065;52.472;13.380;2023-07-20T04:10:24;12.23;;;6.97;;
69008;SDS011;56065;52.472;13.380;2023-07-20T04:12:49;12.27;;;7.40;;
69008;SDS011;56065;52.472;13.380;2023-07-20T04:15:14;12.77;;;8.53;;
69008;SDS011;56065;52.472;13.380;2023-07-20T04:17:40;12.57;;;8.07;;
69008;SDS011;56065;52.472;13.380;2023-07-20T04:20:06;13.30;;;8.97;;
69008;SDS011;56065;52.472;13.380;2023-07-20T04:22:32;13.27;;;8.52;;
69008;SDS011;56065;52.472;13.380;2023-07-20T04:24:57;14.17;;;7.63;;
69008;SDS011;56065;52.472;13.380;2023-07-20T04:27:23;12.97;;;8.50;;
69008;SDS011;56065;52.472;13.380;2023-07-20T04:29:48;15.87;;;10.23;;
69008;SDS011;56065;52.472;13.380;2023-07-20T04:32:13;19.50;;;12.37;;
69008;SDS011;56065;52.472;13.380;2023-07-20T04:34:39;12.03;;;8.07;;
69008;SDS011;56065;52.472;13.380;2023-07-20T04:37:04;14.77;;;9.23;;
69008;SDS011;56065;52.472;13.380;2023-07-20T04:39:29;15.57;;;8.70;;
69008;SDS011;56065;52.472;13.380;2023-07-20T04:41:55;16.63;;;9.43;;
69008;SDS011;56065;52.472;13.380;2023-07-20T04:44:21;13.00;;;9.07;;
69008;SDS011;56065;52.472;13.380;2023-07-20T04:46:46;13.80;;;8.50;;
69008;SDS011;56065;52.472;13.380;2023-07-20T04:49:11;14.93;;;8.70;;
69008;SDS011;56065;52.472;13.380;2023-07-20T04:51:37;15.48;;;9.65;;
69008;SDS011;56065;52.472;13.380;2023-07-20T04:54:03;12.27;;;8.30;;
69008;SDS011;56065;52.472;13.380;2023-07-20T04:56:29;13.60;;;8.80;;
69008;SDS011;56065;52.472;13.380;2023-07-20T04:58:54;12.60;;;7.83;;
69008;SDS011;56065;52.472;13.380;2023-07-20T05:01:19;14.43;;;8.50;;
69008;SDS011;56065;52.472;13.380;2023-07-20T05:03:45;11.15;;;7.80;;
69008;SDS011;56065;52.472;13.380;2023-07-20T05:06:10;11.80;;;7.70;;
69008;SDS011;56065;52.472;13.380;2023-07-20T05:08:36;10.70;;;7.70;;
69008;SDS011;56065;52.472;13.380;2023-07-20T05:11:01;11.73;;;7.07;;
69008;SDS011;56065;52.472;13.380;2023-07-20T05:13:26;11.00;;;7.33;;
69008;SDS011;56065;52.472;13.380;2023-07-20T05:15:52;11.20;;;7.50;;
69008;SDS011;56065;52.472;13.380;2023-07-20T05:18:18;10.03;;;7.17;;
69008;SDS011;56065;52.472;13.380;2023-07-20T05:20:45;10.85;;;7.13;;
69008;SDS011;56065;52.472;13.380;2023-07-20T05:23:14;11.25;;;6.53;;
69008;SDS011;56065;52.472;13.380;2023-07-20T05:25:44;10.32;;;6.28;;
69008;SDS011;56065;52.472;13.380;2023-07-20T05:28:09;9.53;;;6.07;;
69008;SDS011;56065;52.472;13.380;2023-07-20T05:30:35;8.27;;;5.10;;
69008;SDS011;56065;52.472;13.380;2023-07-20T05:33:00;7.83;;;4.70;;
69008;SDS011;56065;52.472;13.380;2023-07-20T05:35:26;7.70;;;4.20;;
69008;SDS011;56065;52.472;13.380;2023-07-20T05:37:51;10.98;;;4.45;;
69008;SDS011;56065;52.472;13.380;2023-07-20T05:40:17;9.77;;;4.30;;
69008;SDS011;56065;52.472;13.380;2023-07-20T05:42:46;10.75;;;4.70;;
69008;SDS011;56065;52.472;13.380;2023-07-20T05:45:13;7.40;;;4.03;;
69008;SDS011;56065;52.472;13.380;2023-07-20T05:47:38;8.90;;;4.20;;
69008;SDS011;56065;52.472;13.380;2023-07-20T05:50:04;8.10;;;4.23;;
69008;SDS011;56065;52.472;13.380;2023-07-20T05:52:29;9.88;;;4.15;;
69008;SDS011;56065;52.472;13.380;2023-07-20T05:54:55;7.73;;;4.03;;
69008;SDS011;56065;52.472;13.380;2023-07-20T05:57:20;8.60;;;4.13;;
69008;SDS011;56065;52.472;13.380;2023-07-20T05:59:46;11.02;;;4.93;;
69008;SDS011;56065;52.472;13.380;2023-07-20T06:02:11;10.07;;;4.87;;
69008;SDS011;56065;52.472;13.380;2023-07-20T06:04:37;12.73;;;7.13;;
69008;SDS011;56065;52.472;13.380;2023-07-20T06:07:03;13.25;;;7.03;;
69008;SDS011;56065;52.472;13.380;2023-07-20T06:09:28;21.83;;;7.93;;
69008;SDS011;56065;52.472;13.380;2023-07-20T06:11:54;35.78;;;12.18;;
69008;SDS011;56065;52.472;13.380;2023-07-20T06:14:20;70.67;;;16.13;;
69008;SDS011;56065;52.472;13.380;2023-07-20T06:16:45;156.30;;;31.93;;
69008;SDS011;56065;52.472;13.380;2023-07-20T06:19:10;86.27;;;18.27;;
69008;SDS011;56065;52.472;13.380;2023-07-20T06:21:37;92.72;;;21.05;;
69008;SDS011;56065;52.472;13.380;2023-07-20T06:24:02;18.63;;;6.20;;
69008;SDS011;56065;52.472;13.380;2023-07-20T06:26:28;11.05;;;5.45;;
69008;SDS011;56065;52.472;13.380;2023-07-20T06:28:54;12.48;;;4.80;;
69008;SDS011;56065;52.472;13.380;2023-07-20T06:31:20;11.30;;;5.23;;
69008;SDS011;56065;52.472;13.380;2023-07-20T06:33:46;9.87;;;4.47;;
69008;SDS011;56065;52.472;13.380;2023-07-20T06:36:11;9.97;;;4.43;;
69008;SDS011;56065;52.472;13.380;2023-07-20T06:38:36;9.20;;;4.65;;
69008;SDS011;56065;52.472;13.380;2023-07-20T06:41:02;9.60;;;4.43;;
69008;SDS011;56065;52.472;13.380;2023-07-20T06:43:27;9.83;;;4.13;;
69008;SDS011;56065;52.472;13.380;2023-07-20T06:45:52;9.90;;;3.80;;
69008;SDS011;56065;52.472;13.380;2023-07-20T06:48:18;8.30;;;2.90;;
69008;SDS011;56065;52.472;13.380;2023-07-20T06:50:44;8.27;;;3.40;;
69008;SDS011;56065;52.472;13.380;2023-07-20T06:53:09;6.67;;;2.90;;
69008;SDS011;56065;52.472;13.380;2023-07-20T06:55:35;7.50;;;2.50;;
69008;SDS011;56065;52.472;13.380;2023-07-20T06:58:00;10.57;;;3.00;;
69008;SDS011;56065;52.472;13.380;2023-07-20T07:00:26;8.23;;;2.40;;
69008;SDS011;56065;52.472;13.380;2023-07-20T07:02:51;8.03;;;2.70;;
69008;SDS011;56065;52.472;13.380;2023-07-20T07:05:16;5.47;;;1.97;;
69008;SDS011;56065;52.472;13.380;2023-07-20T07:07:43;5.80;;;2.40;;
69008;SDS011;56065;52.472;13.380;2023-07-20T07:10:08;6.23;;;2.23;;
69008;SDS011;56065;52.472;13.380;2023-07-20T07:12:34;4.65;;;1.90;;
69008;SDS011;56065;52.472;13.380;2023-07-20T07:15:00;4.85;;;1.85;;
69008;SDS011;56065;52.472;13.380;2023-07-20T07:17:27;6.00;;;2.10;;
69008;SDS011;56065;52.472;13.380;2023-07-20T07:19:52;5.77;;;1.77;;
69008;SDS011;56065;52.472;13.380;2023-07-20T07:22:21;6.40;;;1.50;;
69008;SDS011;56065;52.472;13.380;2023-07-20T07:24:47;6.32;;;2.08;;
69008;SDS011;56065;52.472;13.380;2023-07-20T07:27:12;9.93;;;2.77;;
69008;SDS011;56065;52.472;13.380;2023-07-20T07:29:37;7.63;;;2.33;;
69008;SDS011;56065;52.472;13.380;2023-07-20T07:32:03;5.03;;;1.60;;
69008;SDS011;56065;52.472;13.380;2023-07-20T07:34:29;9.15;;;2.42;;
69008;SDS011;56065;52.472;13.380;2023-07-20T07:36:54;7.83;;;1.93;;
69008;SDS011;56065;52.472;13.380;2023-07-20T07:39:19;5.90;;;1.83;;
69008;SDS011;56065;52.472;13.380;2023-07-20T07:41:45;6.55;;;1.90;;
69008;SDS011;56065;52.472;13.380;2023-07-20T07:44:10;4.70;;;1.60;;
69008;SDS011;56065;52.472;13.380;2023-07-20T07:46:36;4.97;;;1.97;;
69008;SDS011;56065;52.472;13.380;2023-07-20T07:49:01;3.87;;;1.60;;
69008;SDS011;56065;52.472;13.380;2023-07-20T07:51:26;5.25;;;1.30;;
69008;SDS011;56065;52.472;13.380;2023-07-20T07:53:52;2.63;;;1.30;;
69008;SDS011;56065;52.472;13.380;2023-07-20T07:56:17;6.27;;;1.20;;
69008;SDS011;56065;52.472;13.380;2023-07-20T07:58:47;4.97;;;1.00;;
69008;SDS011;56065;52.472;13.380;2023-07-20T08:01:13;5.43;;;1.37;;
69008;SDS011;56065;52.472;13.380;2023-07-20T08:03:38;3.93;;;1.40;;
69008;SDS011;56065;52.472;13.380;2023-07-20T08:06:03;6.20;;;1.35;;
69008;SDS011;56065;52.472;13.380;2023-07-20T08:08:30;2.60;;;1.00;;
69008;SDS011;56065;52.472;13.380;2023-07-20T08:10:56;3.13;;;1.20;;
69008;SDS011;56065;52.472;13.380;2023-07-20T08:13:22;3.72;;;1.08;;
69008;SDS011;56065;52.472;13.380;2023-07-20T08:15:51;4.90;;;1.43;;
69008;SDS011;56065;52.472;13.380;2023-07-20T08:18:17;5.60;;;1.95;;
69008;SDS011;56065;52.472;13.380;2023-07-20T08:20:45;4.38;;;1.27;;
69008;SDS011;56065;52.472;13.380;2023-07-20T08:23:11;6.27;;;1.80;;
69008;SDS011;56065;52.472;13.380;2023-07-20T08:25:37;6.22;;;1.92;;
69008;SDS011;56065;52.472;13.380;2023-07-20T08:28:04;5.30;;;1.20;;
69008;SDS011;56065;52.472;13.380;2023-07-20T08:30:39;4.25;;;0.90;;
69008;SDS011;56065;52.472;13.380;2023-07-20T08:33:05;3.27;;;0.57;;
69008;SDS011;56065;52.472;13.380;2023-07-20T08:35:30;3.58;;;0.90;;
69008;SDS011;56065;52.472;13.380;2023-07-20T08:37:56;3.13;;;0.90;;
69008;SDS011;56065;52.472;13.380;2023-07-20T08:40:21;3.10;;;0.70;;
69008;SDS011;56065;52.472;13.380;2023-07-20T08:42:46;6.13;;;1.30;;
69008;SDS011;56065;52.472;13.380;2023-07-20T08:45:12;5.35;;;1.20;;
69008;SDS011;56065;52.472;13.380;2023-07-20T08:47:39;4.40;;;0.88;;
69008;SDS011;56065;52.472;13.380;2023-07-20T08:50:06;5.30;;;1.03;;
69008;SDS011;56065;52.472;13.380;2023-07-20T08:52:34;6.32;;;1.00;;
69008;SDS011;56065;52.472;13.380;2023-07-20T08:54:59;5.65;;;1.20;;
69008;SDS011;56065;52.472;13.380;2023-07-20T08:57:28;5.93;;;1.20;;
69008;SDS011;56065;52.472;13.380;2023-07-20T08:59:54;3.78;;;0.80;;
69008;SDS011;56065;52.472;13.380;2023-07-20T09:02:20;3.25;;;1.10;;
69008;SDS011;56065;52.472;13.380;2023-07-20T09:04:49;4.40;;;1.10;;
69008;SDS011;56065;52.472;13.380;2023-07-20T09:07:15;4.07;;;1.30;;
69008;SDS011;56065;52.472;13.380;2023-07-20T09:09:41;3.92;;;1.50;;
69008;SDS011;56065;52.472;13.380;2023-07-20T09:12:12;2.97;;;0.60;;
69008;SDS011;56065;52.472;13.380;2023-07-20T09:14:39;2.57;;;1.00;;
69008;SDS011;56065;52.472;13.380;2023-07-20T09:17:08;3.40;;;0.80;;
69008;SDS011;56065;52.472;13.380;2023-07-20T09:19:37;3.53;;;0.70;;
69008;SDS011;56065;52.472;13.380;2023-07-20T09:22:03;4.70;;;0.70;;
69008;SDS011;56065;52.472;13.380;2023-07-20T09:24:30;3.25;;;0.80;;
69008;SDS011;56065;52.472;13.380;2023-07-20T09:26:57;2.58;;;0.70;;
69008;SDS011;56065;52.472;13.380;2023-07-20T09:29:26;3.10;;;1.10;;
69008;SDS011;56065;52.472;13.380;2023-07-20T09:32:25;3.72;;;0.60;;
69008;SDS011;56065;52.472;13.380;2023-07-20T09:34:45;3.63;;;1.53;;
69008;SDS011;56065;52.472;13.380;2023-07-20T09:37:11;3.00;;;0.85;;
69008;SDS011;56065;52.472;13.380;2023-07-20T09:39:43;2.73;;;0.70;;
69008;SDS011;56065;52.472;13.380;2023-07-20T09:42:12;1.75;;;0.70;;
69008;SDS011;56065;52.472;13.380;2023-07-20T09:44:39;1.77;;;0.70;;
69008;SDS011;56065;52.472;13.380;2023-07-20T09:47:08;2.88;;;0.82;;
69008;SDS011;56065;52.472;13.380;2023-07-20T09:49:37;2.03;;;0.63;;
69008;SDS011;56065;52.472;13.380;2023-07-20T09:52:04;2.10;;;0.70;;
69008;SDS011;56065;52.472;13.380;2023-07-20T09:54:31;3.63;;;0.73;;
69008;SDS011;56065;52.472;13.380;2023-07-20T09:56:57;4.03;;;1.10;;
69008;SDS011;56065;52.472;13.380;2023-07-20T09:59:23;4.60;;;0.87;;
69008;SDS011;56065;52.472;13.380;2023-07-20T10:01:49;2.28;;;0.70;;
69008;SDS011;56065;52.472;13.380;2023-07-20T10:04:18;2.25;;;0.70;;
69008;SDS011;56065;52.472;13.380;2023-07-20T10:06:46;5.60;;;0.90;;
69008;SDS011;56065;52.472;13.380;2023-07-20T10:09:13;3.90;;;0.90;;
69008;SDS011;56065;52.472;13.380;2023-07-20T10:11:42;3.60;;;0.85;;
69008;SDS011;56065;52.472;13.380;2023-07-20T10:14:11;3.10;;;1.00;;
69008;SDS011;56065;52.472;13.380;2023-07-20T10:16:42;3.13;;;0.80;;
69008;SDS011;56065;52.472;13.380;2023-07-20T10:19:27;2.73;;;0.60;;
69008;SDS011;56065;52.472;13.380;2023-07-20T10:22:00;2.92;;;1.17;;
69008;SDS011;56065;52.472;13.380;2023-07-20T10:24:32;4.25;;;1.55;;
69008;SDS011;56065;52.472;13.380;2023-07-20T10:27:00;3.22;;;1.20;;
69008;SDS011;56065;52.472;13.380;2023-07-20T10:29:26;3.00;;;1.05;;
69008;SDS011;56065;52.472;13.380;2023-07-20T10:31:52;3.83;;;1.00;;
69008;SDS011;56065;52.472;13.380;2023-07-20T10:34:19;4.18;;;1.48;;
69008;SDS011;56065;52.472;13.380;2023-07-20T10:36:46;2.42;;;0.90;;
69008;SDS011;56065;52.472;13.380;2023-07-20T10:39:22;3.17;;;1.15;;
69008;SDS011;56065;52.472;13.380;2023-07-20T10:41:49;5.00;;;1.40;;
69008;SDS011;56065;52.472;13.380;2023-07-20T10:44:15;3.87;;;1.10;;
69008;SDS011;56065;52.472;13.380;2023-07-20T10:46:45;4.85;;;1.80;;
69008;SDS011;56065;52.472;13.380;2023-07-20T10:49:11;3.13;;;1.20;;
69008;SDS011;56065;52.472;13.380;2023-07-20T10:51:47;3.83;;;1.00;;
69008;SDS011;56065;52.472;13.380;2023-07-20T10:56:42;5.07;;;1.27;;
69008;SDS011;56065;52.472;13.380;2023-07-20T11:01:47;2.90;;;0.90;;
69008;SDS011;56065;52.472;13.380;2023-07-20T11:04:14;3.58;;;1.08;;
69008;SDS011;56065;52.472;13.380;2023-07-20T11:06:45;4.38;;;1.25;;
69008;SDS011;56065;52.472;13.380;2023-07-20T11:09:11;7.20;;;1.98;;
69008;SDS011;56065;52.472;13.380;2023-07-20T11:11:40;5.47;;;1.20;;
69008;SDS011;56065;52.472;13.380;2023-07-20T11:16:49;2.97;;;1.00;;
69008;SDS011;56065;52.472;13.380;2023-07-20T11:19:22;4.45;;;1.13;;
69008;SDS011;56065;52.472;13.380;2023-07-20T11:21:50;2.80;;;0.70;;
69008;SDS011;56065;52.472;13.380;2023-07-20T11:24:17;3.17;;;0.90;;
69008;SDS011;56065;52.472;13.380;2023-07-20T11:26:49;2.10;;;0.90;;
69008;SDS011;56065;52.472;13.380;2023-07-20T11:29:16;4.40;;;0.80;;
69008;SDS011;56065;52.472;13.380;2023-07-20T11:31:43;2.38;;;0.73;;
69008;SDS011;56065;52.472;13.380;2023-07-20T11:34:10;3.10;;;0.80;;
69008;SDS011;56065;52.472;13.380;2023-07-20T11:36:40;3.70;;;1.10;;
69008;SDS011;56065;52.472;13.380;2023-07-20T11:39:10;2.90;;;1.17;;
69008;SDS011;56065;52.472;13.380;2023-07-20T11:41:37;4.07;;;1.27;;
69008;SDS011;56065;52.472;13.380;2023-07-20T11:44:04;2.42;;;1.13;;
69008;SDS011;56065;52.472;13.380;2023-07-20T11:46:31;2.63;;;1.60;;
69008;SDS011;56065;52.472;13.380;2023-07-20T11:48:57;3.80;;;1.60;;
69008;SDS011;56065;52.472;13.380;2023-07-20T11:51:24;3.47;;;1.65;;
69008;SDS011;56065;52.472;13.380;2023-07-20T11:53:51;4.00;;;1.05;;
69008;SDS011;56065;52.472;13.380;2023-07-20T11:56:17;3.80;;;1.70;;
69008;SDS011;56065;52.472;13.380;2023-07-20T11:58:43;3.03;;;1.63;;
69008;SDS011;56065;52.472;13.380;2023-07-20T12:01:09;3.50;;;1.40;;
69008;SDS011;56065;52.472;13.380;2023-07-20T12:03:36;2.50;;;0.90;;
69008;SDS011;56065;52.472;13.380;2023-07-20T12:06:10;4.10;;;0.80;;
69008;SDS011;56065;52.472;13.380;2023-07-20T12:08:39;2.15;;;0.73;;
69008;SDS011;56065;52.472;13.380;2023-07-20T12:11:06;3.95;;;1.08;;
69008;SDS011;56065;52.472;13.380;2023-07-20T12:13:42;2.50;;;0.80;;
69008;SDS011;56065;52.472;13.380;2023-07-20T12:16:15;2.10;;;0.63;;
69008;SDS011;56065;52.472;13.380;2023-07-20T12:18:42;3.97;;;0.60;;
69008;SDS011;56065;52.472;13.380;2023-07-20T12:21:08;7.45;;;0.95;;
69008;SDS011;56065;52.472;13.380;2023-07-20T12:23:35;2.90;;;0.98;;
69008;SDS011;56065;52.472;13.380;2023-07-20T12:26:07;6.05;;;2.42;;
69008;SDS011;56065;52.472;13.380;2023-07-20T12:28:35;1.60;;;0.50;;
69008;SDS011;56065;52.472;13.380;2023-07-20T12:31:07;4.80;;;1.10;;
69008;SDS011;56065;52.472;13.380;2023-07-20T12:33:34;7.25;;;3.25;;
69008;SDS011;56065;52.472;13.380;2023-07-20T12:36:00;3.10;;;1.00;;
69008;SDS011;56065;52.472;13.380;2023-07-20T12:38:26;8.38;;;3.33;;
69008;SDS011;56065;52.472;13.380;2023-07-20T12:40:52;5.30;;;0.80;;
69008;SDS011;56065;52.472;13.380;2023-07-20T12:43:20;3.13;;;0.85;;
69008;SDS011;56065;52.472;13.380;2023-07-20T12:45:45;2.87;;;0.90;;
69008;SDS011;56065;52.472;13.380;2023-07-20T12:48:10;4.23;;;1.50;;
69008;SDS011;56065;52.472;13.380;2023-07-20T12:50:36;4.77;;;1.40;;
69008;SDS011;56065;52.472;13.380;2023-07-20T12:53:01;3.03;;;0.70;;
69008;SDS011;56065;52.472;13.380;2023-07-20T12:55:28;3.83;;;1.33;;
69008;SDS011;56065;52.472;13.380;2023-07-20T12:57:54;3.00;;;0.60;;
69008;SDS011;56065;52.472;13.380;2023-07-20T13:00:20;4.60;;;2.10;;
69008;SDS011;56065;52.472;13.380;2023-07-20T13:02:47;2.95;;;0.63;;
69008;SDS011;56065;52.472;13.380;2023-07-20T13:05:12;4.23;;;0.90;;
69008;SDS011;56065;52.472;13.380;2023-07-20T13:07:38;3.25;;;0.80;;
69008;SDS011;56065;52.472;13.380;2023-07-20T13:10:04;1.90;;;0.70;;
69008;SDS011;56065;52.472;13.380;2023-07-20T13:12:31;2.13;;;0.70;;
69008;SDS011;56065;52.472;13.380;2023-07-20T13:14:58;3.60;;;0.77;;
69008;SDS011;56065;52.472;13.380;2023-07-20T13:17:26;3.90;;;0.82;;
69008;SDS011;56065;52.472;13.380;2023-07-20T13:19:52;2.50;;;0.50;;
69008;SDS011;56065;52.472;13.380;2023-07-20T13:22:17;3.60;;;0.67;;
69008;SDS011;56065;52.472;13.380;2023-07-20T13:24:44;5.47;;;0.97;;
69008;SDS011;56065;52.472;13.380;2023-07-20T13:27:16;2.45;;;0.60;;
69008;SDS011;56065;52.472;13.380;2023-07-20T13:29:43;3.38;;;0.60;;
69008;SDS011;56065;52.472;13.380;2023-07-20T13:32:08;3.73;;;0.70;;
69008;SDS011;56065;52.472;13.380;2023-07-20T13:34:34;4.85;;;0.98;;
69008;SDS011;56065;52.472;13.380;2023-07-20T13:37:00;3.10;;;0.60;;
69008;SDS011;56065;52.472;13.380;2023-07-20T13:39:26;3.00;;;1.00;;
69008;SDS011;56065;52.472;13.380;2023-07-20T13:41:52;2.00;;;0.50;;
69008;SDS011;56065;52.472;13.380;2023-07-20T13:44:19;2.88;;;0.68;;
69008;SDS011;56065;52.472;13.380;2023-07-20T13:46:45;3.47;;;0.60;;
69008;SDS011;56065;52.472;13.380;2023-07-20T13:49:11;3.17;;;0.98;;
69008;SDS011;56065;52.472;13.380;2023-07-20T13:51:36;2.67;;;0.87;;
69008;SDS011;56065;52.472;13.380;2023-07-20T13:54:02;3.93;;;0.90;;
69008;SDS011;56065;52.472;13.380;2023-07-20T13:56:27;3.10;;;0.80;;
69008;SDS011;56065;52.472;13.380;2023-07-20T13:58:52;2.65;;;0.60;;
69008;SDS011;56065;52.472;13.380;2023-07-20T14:01:18;1.63;;;0.43;;
69008;SDS011;56065;52.472;13.380;2023-07-20T14:03:44;3.77;;;0.93;;
69008;SDS011;56065;52.472;13.380;2023-07-20T14:06:09;4.40;;;0.68;;
69008;SDS011;56065;52.472;13.380;2023-07-20T14:08:36;2.60;;;0.50;;
69008;SDS011;56065;52.472;13.380;2023-07-20T14:11:01;2.43;;;0.80;;
69008;SDS011;56065;52.472;13.380;2023-07-20T14:13:27;2.93;;;0.90;;
69008;SDS011;56065;52.472;13.380;2023-07-20T14:15:52;3.27;;;0.50;;
69008;SDS011;56065;52.472;13.380;2023-07-20T14:18:18;2.53;;;0.65;;
69008;SDS011;56065;52.472;13.380;2023-07-20T14:20:43;2.63;;;0.70;;
69008;SDS011;56065;52.472;13.380;2023-07-20T14:23:09;4.17;;;0.77;;
69008;SDS011;56065;52.472;13.380;2023-07-20T14:25:34;1.70;;;0.60;;
69008;SDS011;56065;52.472;13.380;2023-07-20T14:28:00;2.07;;;0.60;;
69008;SDS011;56065;52.472;13.380;2023-07-20T14:30:26;1.98;;;0.60;;
69008;SDS011;56065;52.472;13.380;2023-07-20T14:32:51;4.93;;;1.67;;
69008;SDS011;56065;52.472;13.380;2023-07-20T14:35:17;2.73;;;0.80;;
69008;SDS011;56065;52.472;13.380;2023-07-20T14:37:42;2.55;;;0.50;;
69008;SDS011;56065;52.472;13.380;2023-07-20T14:40:11;3.93;;;0.77;;
69008;SDS011;56065;52.472;13.380;2023-07-20T14:42:37;2.28;;;0.63;;
69008;SDS011;56065;52.472;13.380;2023-07-20T14:45:03;4.90;;;1.10;;
69008;SDS011;56065;52.472;13.380;2023-07-20T14:47:30;5.65;;;1.67;;
69008;SDS011;56065;52.472;13.380;2023-07-20T14:49:57;3.20;;;0.80;;